Time;durP1;ratioP1;P1;durP2;ratioP2;P2;SDS_P1;SDS_P2;PMS_P1;PMS_P2;Temp;Humidity;BMP_temperature;BMP_pressure;BME280_temperature;BME280_humidity;BME280_pressure;Samples;Min_cycle;Max_cycle;Signal;HPM_P1;HPM_P2
2024/01/18 00:01:31;;;;;;;51.03;22.37;;;-0.60;99.90;;;;;;4904093;29;20672;-52
2024/01/18 00:03:58;;;;;;;54.03;22.17;;;-0.80;99.90;;;;;;4911518;29;20250;-54
2024/01/18 00:06:23;;;;;;;50.97;21.30;;;-0.90;99.90;;;;;;4898654;29;20223;-53
2024/01/18 00:08:49;;;;;;;52.80;22.90;;;-0.90;99.90;;;;;;4908413;29;20188;-52
2024/01/18 00:11:16;;;;;;;49.83;21.13;;;-0.80;99.90;;;;;;4913886;29;20675;-52
2024/01/18 00:13:42;;;;;;;44.87;20.73;;;-0.80;99.90;;;;;;4914802;29;20675;-52
2024/01/18 00:16:08;;;;;;;45.77;19.90;;;-0.70;99.90;;;;;;4898469;29;20192;-51
2024/01/18 00:18:34;;;;;;;42.20;19.73;;;-0.60;99.90;;;;;;4910022;29;20204;-52
2024/01/18 00:20:59;;;;;;;50.07;19.93;;;-0.60;99.90;;;;;;4911459;29;20198;-53
2024/01/18 00:23:25;;;;;;;43.90;19.90;;;-0.50;99.90;;;;;;4914687;29;20307;-51
2024/01/18 00:25:51;;;;;;;49.83;19.77;;;-0.50;99.90;;;;;;4914002;29;20195;-49
2024/01/18 00:28:16;;;;;;;45.53;20.13;;;-0.40;99.90;;;;;;4911905;29;20215;-51
2024/01/18 00:30:42;;;;;;;43.90;19.93;;;-0.40;99.90;;;;;;4908887;29;20250;-49
2024/01/18 00:33:07;;;;;;;48.13;19.27;;;-0.40;99.90;;;;;;4913883;29;20192;-53
2024/01/18 00:35:33;;;;;;;45.97;19.63;;;-0.40;99.90;;;;;;4906202;29;20192;-52
2024/01/18 00:37:59;;;;;;;42.30;18.90;;;-0.40;99.90;;;;;;4914406;29;20223;-51
2024/01/18 00:40:24;;;;;;;45.50;18.00;;;-0.40;99.90;;;;;;4895569;29;20261;-51
2024/01/18 00:42:50;;;;;;;48.50;19.10;;;-0.30;99.90;;;;;;4902400;29;20215;-51
2024/01/18 00:45:16;;;;;;;48.23;19.33;;;-0.30;99.90;;;;;;4898125;29;20712;-49
2024/01/18 00:47:41;;;;;;;50.43;20.57;;;-0.30;99.90;;;;;;4908460;29;20219;-49
2024/01/18 00:50:07;;;;;;;46.80;20.43;;;-0.30;99.90;;;;;;4896806;29;20193;-53
2024/01/18 00:52:33;;;;;;;48.13;19.40;;;-0.30;99.90;;;;;;4906239;29;20188;-53
2024/01/18 00:54:59;;;;;;;43.87;19.43;;;-0.40;99.90;;;;;;4905499;29;20206;-50
2024/01/18 00:57:26;;;;;;;42.33;18.70;;;-0.40;99.90;;;;;;4898790;29;20774;-52
2024/01/18 00:59:52;;;;;;;46.80;19.13;;;-0.30;99.90;;;;;;4906366;29;20251;-54
2024/01/18 01:02:17;;;;;;;38.27;18.23;;;-0.30;99.90;;;;;;4903338;29;20208;-50
2024/01/18 01:04:43;;;;;;;43.83;19.23;;;-0.30;99.90;;;;;;4894977;29;20225;-51
2024/01/18 01:07:08;;;;;;;53.47;21.00;;;-0.30;99.90;;;;;;4895507;29;20224;-52
2024/01/18 01:09:34;;;;;;;48.80;21.37;;;-0.40;99.90;;;;;;4913861;29;20196;-50
2024/01/18 01:11:59;;;;;;;57.07;22.40;;;-0.50;99.90;;;;;;4898302;29;20184;-52
2024/01/18 01:14:25;;;;;;;50.30;21.47;;;-0.60;99.90;;;;;;4905930;29;20192;-51
2024/01/18 01:16:50;;;;;;;48.37;21.37;;;-0.60;99.90;;;;;;4905260;29;20347;-55
2024/01/18 01:19:16;;;;;;;54.77;22.13;;;-0.60;99.90;;;;;;4913657;29;20191;-54
2024/01/18 01:21:42;;;;;;;45.73;21.17;;;-0.60;99.90;;;;;;4907828;29;20192;-51
2024/01/18 01:24:07;;;;;;;50.73;20.37;;;-0.60;99.90;;;;;;4903813;29;20215;-53
2024/01/18 01:26:33;;;;;;;56.10;21.20;;;-0.70;99.90;;;;;;4913337;29;20600;-52
2024/01/18 01:28:58;;;;;;;52.97;22.93;;;-0.70;99.90;;;;;;4913582;29;20254;-51
2024/01/18 01:31:24;;;;;;;45.43;20.37;;;-0.70;99.90;;;;;;4902492;29;20279;-52
2024/01/18 01:33:50;;;;;;;50.30;21.67;;;-0.70;99.90;;;;;;4894811;29;20227;-52
2024/01/18 01:36:16;;;;;;;46.30;19.83;;;-0.70;99.90;;;;;;4893624;29;20204;-55
2024/01/18 01:38:41;;;;;;;49.00;20.30;;;-0.70;99.90;;;;;;4908127;29;20183;-54
2024/01/18 01:41:07;;;;;;;40.60;18.17;;;-0.80;99.90;;;;;;4905821;29;20191;-51
2024/01/18 01:43:32;;;;;;;39.47;18.37;;;-0.80;99.90;;;;;;4900846;29;20208;-51
2024/01/18 01:45:58;;;;;;;42.10;17.83;;;-0.70;99.90;;;;;;4901468;29;20196;-51
2024/01/18 01:48:24;;;;;;;39.00;17.07;;;-0.60;99.90;;;;;;4894695;29;20727;-50
2024/01/18 01:50:50;;;;;;;41.47;17.47;;;-0.50;99.90;;;;;;4902252;29;20604;-55
2024/01/18 01:53:18;;;;;;;35.23;16.70;;;-0.50;99.90;;;;;;4896508;29;20199;-51
2024/01/18 01:55:44;;;;;;;47.00;18.53;;;-0.40;99.90;;;;;;4905038;29;20198;-52
2024/01/18 01:58:15;;;;;;;43.37;16.83;;;-0.40;99.90;;;;;;4903849;29;20216;-54
2024/01/18 02:00:41;;;;;;;37.80;16.23;;;-0.40;99.90;;;;;;4907892;29;20235;-54
2024/01/18 02:03:08;;;;;;;38.83;16.80;;;-0.40;99.90;;;;;;4896275;29;20219;-51
2024/01/18 02:05:34;;;;;;;38.50;16.17;;;-0.40;99.90;;;;;;4906000;29;20601;-55
2024/01/18 02:07:59;;;;;;;36.40;15.83;;;-0.40;99.90;;;;;;4904909;29;20208;-52
2024/01/18 02:10:26;;;;;;;34.57;15.20;;;-0.40;99.90;;;;;;4909725;29;20191;-54
2024/01/18 02:12:52;;;;;;;33.40;14.13;;;-0.40;99.90;;;;;;4909124;29;20247;-52
2024/01/18 02:15:19;;;;;;;29.57;13.27;;;-0.40;99.90;;;;;;4902157;29;20661;-50
2024/01/18 02:17:44;;;;;;;29.87;12.80;;;-0.40;99.90;;;;;;4908018;29;20285;-53
2024/01/18 02:20:10;;;;;;;35.30;12.03;;;-0.40;99.90;;;;;;4903792;29;20218;-55
2024/01/18 02:22:42;;;;;;;24.30;11.37;;;-0.50;99.90;;;;;;4894548;29;20212;-49
2024/01/18 02:25:25;;;;;;;28.90;11.37;;;-0.40;99.90;;;;;;4901267;29;20471;-52
2024/01/18 02:27:55;;;;;;;27.67;11.17;;;-0.50;99.90;;;;;;4908755;29;20208;-55
2024/01/18 02:30:20;;;;;;;25.63;12.17;;;-0.40;99.90;;;;;;4905057;29;20183;-53
2024/01/18 02:32:46;;;;;;;24.53;10.57;;;-0.30;99.90;;;;;;4905543;29;20192;-51
2024/01/18 02:35:12;;;;;;;26.47;11.93;;;-0.30;99.90;;;;;;4904613;29;20652;-51
2024/01/18 02:37:38;;;;;;;33.53;13.63;;;-0.30;99.90;;;;;;4908065;29;20208;-54
2024/01/18 02:40:05;;;;;;;32.63;14.07;;;-0.30;99.90;;;;;;4894000;29;20283;-51
2024/01/18 02:42:31;;;;;;;24.73;10.60;;;-0.40;99.90;;;;;;4906061;29;20211;-54
2024/01/18 02:44:57;;;;;;;22.43;10.77;;;-0.30;99.90;;;;;;4904845;29;20256;-50
2024/01/18 02:47:26;;;;;;;22.63;9.80;;;-0.30;99.90;;;;;;4905006;29;20203;-54
2024/01/18 02:49:52;;;;;;;22.63;10.47;;;-0.20;99.90;;;;;;4905131;29;20195;-53
2024/01/18 02:52:18;;;;;;;22.33;9.80;;;-0.20;99.90;;;;;;4904947;29;20184;-53
2024/01/18 02:54:43;;;;;;;24.60;10.93;;;-0.20;99.90;;;;;;4900022;29;20176;-54
2024/01/18 02:57:09;;;;;;;31.70;13.83;;;-0.20;99.90;;;;;;4897896;29;20259;-54
2024/01/18 02:59:35;;;;;;;25.63;11.03;;;-0.20;99.90;;;;;;4908301;29;20624;-52
2024/01/18 03:02:01;;;;;;;23.23;10.30;;;-0.20;99.90;;;;;;4915910;29;20188;-51
2024/01/18 03:04:26;;;;;;;23.10;9.63;;;-0.20;99.90;;;;;;4912728;29;20201;-52
2024/01/18 03:06:52;;;;;;;20.87;8.37;;;-0.20;99.90;;;;;;4910994;29;20251;-52
2024/01/18 03:09:17;;;;;;;19.40;8.07;;;-0.20;99.90;;;;;;4908084;29;20187;-54
2024/01/18 03:11:43;;;;;;;27.03;8.60;;;-0.20;99.90;;;;;;4910417;29;20539;-55
2024/01/18 03:14:08;;;;;;;19.10;8.80;;;-0.20;99.90;;;;;;4905848;29;20200;-52
2024/01/18 03:16:36;;;;;;;22.27;10.00;;;-0.20;99.90;;;;;;4915205;29;20219;-55
2024/01/18 03:19:02;;;;;;;22.30;8.63;;;-0.20;99.90;;;;;;4907795;29;20200;-54
2024/01/18 03:21:27;;;;;;;20.67;7.70;;;-0.20;99.90;;;;;;4904593;29;20575;-53
2024/01/18 03:23:53;;;;;;;18.40;7.97;;;-0.20;99.90;;;;;;4904669;29;20307;-56
2024/01/18 03:26:18;;;;;;;14.07;6.40;;;-0.30;99.90;;;;;;4896202;29;21815;-51
2024/01/18 03:28:44;;;;;;;19.87;6.97;;;-0.30;99.90;;;;;;4910391;29;20283;-52
2024/01/18 03:31:11;;;;;;;10.23;4.70;;;-0.20;99.90;;;;;;4915611;29;20276;-56
2024/01/18 03:33:37;;;;;;;12.03;5.23;;;-0.20;99.90;;;;;;4910862;29;20277;-51
2024/01/18 03:36:03;;;;;;;8.67;4.30;;;-0.10;99.90;;;;;;4904157;29;20567;-52
2024/01/18 03:38:29;;;;;;;8.57;4.07;;;-0.10;99.90;;;;;;4915538;29;20200;-53
2024/01/18 03:40:54;;;;;;;9.23;4.30;;;-0.20;99.90;;;;;;4907772;29;20298;-54
2024/01/18 03:43:20;;;;;;;12.63;4.93;;;-0.20;99.90;;;;;;4899605;29;20218;-52
2024/01/18 03:45:47;;;;;;;12.80;5.93;;;-0.10;99.90;;;;;;4901332;29;20193;-55
2024/01/18 03:48:13;;;;;;;14.83;5.50;;;-0.20;99.90;;;;;;4898215;29;20585;-55
2024/01/18 03:50:38;;;;;;;13.60;5.27;;;-0.30;99.90;;;;;;4910371;29;20268;-54
2024/01/18 03:53:04;;;;;;;14.60;6.80;;;-0.40;99.90;;;;;;4912324;29;20800;-51
2024/01/18 03:55:30;;;;;;;16.00;6.93;;;-0.30;99.90;;;;;;4906876;29;20227;-53
2024/01/18 03:57:57;;;;;;;12.57;6.30;;;-0.30;99.90;;;;;;4907876;29;20246;-54
2024/01/18 04:00:23;;;;;;;13.30;6.23;;;-0.40;99.90;;;;;;4914729;29;20207;-51
2024/01/18 04:02:48;;;;;;;11.67;5.77;;;-0.30;99.90;;;;;;4901172;29;20688;-54
2024/01/18 04:05:14;;;;;;;12.33;6.17;;;-0.30;99.90;;;;;;4905133;29;20211;-52
2024/01/18 04:07:40;;;;;;;11.97;5.97;;;-0.30;99.90;;;;;;4906962;29;20318;-52
2024/01/18 04:10:07;;;;;;;12.97;6.03;;;-0.40;99.90;;;;;;4899188;29;20203;-53
2024/01/18 04:12:34;;;;;;;18.87;6.53;;;-0.30;99.90;;;;;;4910589;29;20200;-51
2024/01/18 04:14:59;;;;;;;14.40;6.03;;;-0.30;99.90;;;;;;4903339;29;20275;-56
2024/01/18 04:17:25;;;;;;;13.40;6.33;;;-0.30;99.90;;;;;;4907057;29;20696;-51
2024/01/18 04:19:51;;;;;;;13.80;6.57;;;-0.30;99.90;;;;;;4914920;29;20195;-54
2024/01/18 04:22:16;;;;;;;15.43;6.13;;;-0.30;99.90;;;;;;4906729;29;20555;-55
2024/01/18 04:24:42;;;;;;;13.97;6.53;;;-0.30;99.90;;;;;;4914730;29;20192;-54
2024/01/18 04:27:08;;;;;;;13.07;6.30;;;-0.20;99.90;;;;;;4906336;29;20215;-55
2024/01/18 04:29:33;;;;;;;14.03;6.60;;;-0.20;99.90;;;;;;4907026;29;20572;-54
2024/01/18 04:31:59;;;;;;;14.27;6.47;;;-0.20;99.90;;;;;;4914786;29;20207;-55
2024/01/18 04:34:24;;;;;;;12.73;6.07;;;-0.20;99.90;;;;;;4914336;29;20196;-52
2024/01/18 04:36:50;;;;;;;17.23;6.50;;;-0.20;99.90;;;;;;4905946;29;20219;-52
2024/01/18 04:39:16;;;;;;;14.90;5.90;;;-0.30;99.90;;;;;;4904548;29;20200;-52
2024/01/18 04:41:41;;;;;;;11.53;6.03;;;-0.20;99.90;;;;;;4900831;29;20192;-56
2024/01/18 04:44:07;;;;;;;25.13;7.67;;;-0.30;99.90;;;;;;4905183;29;20715;-55
2024/01/18 04:46:33;;;;;;;17.27;7.23;;;-0.30;99.90;;;;;;4905861;29;20216;-53
2024/01/18 04:48:58;;;;;;;17.90;7.43;;;-0.30;99.90;;;;;;4906445;29;20196;-55
2024/01/18 04:51:24;;;;;;;21.27;7.43;;;-0.30;99.90;;;;;;4913927;29;20286;-51
2024/01/18 04:53:50;;;;;;;19.07;7.10;;;-0.40;99.90;;;;;;4900037;29;20203;-51
2024/01/18 04:56:16;;;;;;;21.20;9.30;;;-0.30;99.90;;;;;;4909962;29;20199;-52
2024/01/18 04:58:42;;;;;;;29.90;11.67;;;-0.30;99.90;;;;;;4900531;29;20243;-53
2024/01/18 05:01:07;;;;;;;25.00;8.67;;;-0.30;99.90;;;;;;4914247;29;20199;-52
2024/01/18 05:03:33;;;;;;;16.30;7.60;;;-0.40;99.90;;;;;;4909869;29;20216;-54
2024/01/18 05:05:58;;;;;;;13.30;6.30;;;-0.40;99.90;;;;;;4902462;29;20672;-55
2024/01/18 05:08:24;;;;;;;15.90;6.27;;;-0.40;99.90;;;;;;4894891;29;20223;-52
2024/01/18 05:10:50;;;;;;;16.20;7.30;;;-0.40;99.90;;;;;;4909184;29;20199;-52
2024/01/18 05:13:16;;;;;;;15.70;6.93;;;-0.30;99.90;;;;;;4898354;29;20204;-51
2024/01/18 05:15:41;;;;;;;18.07;7.80;;;-0.40;99.90;;;;;;4908137;29;20204;-55
2024/01/18 05:18:07;;;;;;;17.37;7.30;;;-0.40;99.90;;;;;;4903075;29;20303;-52
2024/01/18 05:20:33;;;;;;;17.57;8.70;;;-0.40;99.90;;;;;;4909990;29;20668;-51
2024/01/18 05:22:59;;;;;;;17.47;8.13;;;-0.40;99.90;;;;;;4902408;29;20234;-52
2024/01/18 05:25:25;;;;;;;18.07;7.27;;;-0.40;99.90;;;;;;4905010;29;20196;-50
2024/01/18 05:27:51;;;;;;;22.17;7.93;;;-0.30;99.90;;;;;;4905737;29;20216;-51
2024/01/18 05:30:16;;;;;;;14.00;6.60;;;-0.30;99.90;;;;;;4913580;29;20270;-52
2024/01/18 05:32:42;;;;;;;16.13;7.50;;;-0.30;99.90;;;;;;4913616;29;20199;-52
2024/01/18 05:35:08;;;;;;;23.00;7.63;;;-0.30;99.90;;;;;;4904593;29;20195;-50
2024/01/18 05:37:33;;;;;;;18.03;7.63;;;-0.30;99.90;;;;;;4894534;29;20747;-50
2024/01/18 05:39:59;;;;;;;17.73;7.33;;;-0.30;99.90;;;;;;4902066;29;20668;-51
2024/01/18 05:42:27;;;;;;;18.20;7.63;;;-0.30;99.90;;;;;;4902349;29;20196;-50
2024/01/18 05:44:53;;;;;;;18.43;7.83;;;-0.30;99.90;;;;;;4894276;29;20275;-51
2024/01/18 05:47:20;;;;;;;15.77;7.13;;;-0.30;99.90;;;;;;4904390;29;20282;-51
2024/01/18 05:49:45;;;;;;;20.77;7.77;;;-0.20;99.90;;;;;;4913464;29;20195;-51
2024/01/18 05:52:11;;;;;;;16.10;7.70;;;-0.20;99.90;;;;;;4903911;29;20188;-54
2024/01/18 05:54:37;;;;;;;24.53;8.07;;;-0.20;99.90;;;;;;4894227;29;20661;-50
2024/01/18 05:57:03;;;;;;;19.37;8.23;;;-0.20;99.90;;;;;;4901907;29;20263;-49
2024/01/18 05:59:29;;;;;;;20.20;7.97;;;-0.30;99.90;;;;;;4905616;29;20206;-52
2024/01/18 06:01:55;;;;;;;18.20;8.70;;;-0.30;99.90;;;;;;4913272;29;20306;-51
2024/01/18 06:04:21;;;;;;;14.30;7.13;;;-0.40;99.90;;;;;;4905325;29;20219;-51
2024/01/18 06:06:47;;;;;;;17.90;8.20;;;-0.40;99.90;;;;;;4912484;29;20772;-51
2024/01/18 06:09:16;;;;;;;18.83;8.70;;;-0.50;99.90;;;;;;4913021;29;20247;-52
2024/01/18 06:11:42;;;;;;;26.50;11.17;;;-0.50;99.90;;;;;;4900398;29;20199;-55
2024/01/18 06:14:08;;;;;;;31.47;12.43;;;-0.50;99.90;;;;;;4902870;29;20665;-52
2024/01/18 06:16:34;;;;;;;25.13;11.17;;;-0.50;99.90;;;;;;4908270;29;20267;-54
2024/01/18 06:18:59;;;;;;;21.50;9.07;;;-0.50;99.90;;;;;;4902021;29;20554;-51
2024/01/18 06:21:25;;;;;;;25.83;9.33;;;-0.50;99.90;;;;;;4909523;29;20216;-50
2024/01/18 06:23:50;;;;;;;21.00;8.93;;;-0.50;99.90;;;;;;4908645;29;20235;-50
2024/01/18 06:26:16;;;;;;;19.90;8.07;;;-0.50;99.90;;;;;;4904626;29;20184;-54
2024/01/18 06:28:42;;;;;;;17.27;8.60;;;-0.50;99.90;;;;;;4899951;29;20240;-52
2024/01/18 06:31:08;;;;;;;18.90;8.77;;;-0.50;99.90;;;;;;4903988;29;20267;-54
2024/01/18 06:33:34;;;;;;;20.80;9.03;;;-0.50;99.90;;;;;;4905005;29;20290;-52
2024/01/18 06:36:00;;;;;;;19.47;8.87;;;-0.50;99.90;;;;;;4908134;29;20303;-53
2024/01/18 06:38:26;;;;;;;19.73;9.10;;;-0.60;99.90;;;;;;4908548;29;20203;-51
2024/01/18 06:40:51;;;;;;;21.47;8.97;;;-0.60;99.90;;;;;;4908836;29;20191;-52
2024/01/18 06:43:17;;;;;;;21.40;9.80;;;-0.60;99.90;;;;;;4900868;29;20208;-52
2024/01/18 06:45:43;;;;;;;19.07;9.40;;;-0.70;99.90;;;;;;4908056;29;20188;-52
2024/01/18 06:48:09;;;;;;;21.97;9.67;;;-0.60;99.90;;;;;;4908431;29;20706;-54
2024/01/18 06:50:35;;;;;;;24.27;9.43;;;-0.60;99.90;;;;;;4904445;29;20197;-52
2024/01/18 06:53:03;;;;;;;26.90;10.13;;;-0.70;99.90;;;;;;4912862;29;20199;-52
2024/01/18 06:55:29;;;;;;;22.60;10.77;;;-0.70;99.90;;;;;;4915838;29;20187;-53
2024/01/18 06:57:55;;;;;;;22.80;10.13;;;-0.70;99.90;;;;;;4916298;29;20227;-53
2024/01/18 07:00:24;;;;;;;25.40;11.20;;;-0.70;99.90;;;;;;4916114;29;20258;-50
2024/01/18 07:02:50;;;;;;;21.50;10.27;;;-0.70;99.90;;;;;;4909972;29;20300;-54
2024/01/18 07:05:17;;;;;;;25.10;11.03;;;-0.70;99.90;;;;;;4906108;29;20195;-52
2024/01/18 07:07:46;;;;;;;28.40;10.93;;;-0.60;99.90;;;;;;4910679;29;20224;-52
2024/01/18 07:10:12;;;;;;;23.73;11.30;;;-0.70;99.90;;;;;;4914057;29;20219;-50
2024/01/18 07:12:38;;;;;;;26.67;12.23;;;-0.60;99.90;;;;;;4911376;29;20619;-51
2024/01/18 07:15:04;;;;;;;25.03;11.27;;;-0.70;99.90;;;;;;4912152;29;20550;-51
2024/01/18 07:17:29;;;;;;;27.80;12.23;;;-0.70;99.90;;;;;;4908230;29;20283;-53
2024/01/18 07:19:56;;;;;;;31.47;12.20;;;-0.80;99.90;;;;;;4901001;29;20937;-51
2024/01/18 07:22:22;;;;;;;25.90;11.07;;;-0.70;99.90;;;;;;4907217;29;20200;-53
2024/01/18 07:24:49;;;;;;;28.60;11.50;;;-0.70;99.90;;;;;;4907461;29;20436;-54
2024/01/18 07:27:15;;;;;;;27.33;11.70;;;-0.70;99.90;;;;;;4913952;29;20222;-51
2024/01/18 07:29:40;;;;;;;26.73;11.67;;;-0.70;99.90;;;;;;4901846;29;20531;-52
2024/01/18 07:32:06;;;;;;;31.60;12.33;;;-0.60;99.90;;;;;;4899881;29;20188;-52
2024/01/18 07:34:33;;;;;;;30.40;11.73;;;-0.70;99.90;;;;;;4915466;29;20255;-55
2024/01/18 07:36:59;;;;;;;26.13;11.97;;;-0.60;99.90;;;;;;4907757;29;20245;-51
2024/01/18 07:39:25;;;;;;;29.23;11.47;;;-0.70;99.90;;;;;;4912154;29;20228;-50
2024/01/18 07:41:50;;;;;;;30.07;11.60;;;-0.70;99.90;;;;;;4896230;29;20200;-51
2024/01/18 07:44:16;;;;;;;34.10;12.97;;;-0.70;99.90;;;;;;4911744;29;20234;-50
2024/01/18 07:46:41;;;;;;;32.60;14.10;;;-0.70;99.90;;;;;;4900955;29;20295;-55
2024/01/18 07:49:07;;;;;;;30.97;12.93;;;-0.70;99.90;;;;;;4906821;29;20210;-51
2024/01/18 07:51:32;;;;;;;29.97;12.13;;;-0.70;99.90;;;;;;4896316;29;20566;-51
2024/01/18 07:53:58;;;;;;;27.27;12.70;;;-0.70;99.90;;;;;;4896453;29;20204;-50
2024/01/18 07:56:24;;;;;;;34.70;13.17;;;-0.80;99.90;;;;;;4902557;29;20215;-50
2024/01/18 07:58:49;;;;;;;34.27;12.33;;;-0.70;99.90;;;;;;4910229;29;20195;-50
2024/01/18 08:01:16;;;;;;;30.67;13.17;;;-0.70;99.90;;;;;;4914991;29;20751;-50
2024/01/18 08:03:42;;;;;;;29.77;12.37;;;-0.60;99.90;;;;;;4907068;29;20279;-50
2024/01/18 08:06:08;;;;;;;30.47;11.80;;;-0.60;99.90;;;;;;4913060;29;20208;-49
2024/01/18 08:08:34;;;;;;;26.73;11.30;;;-0.60;99.90;;;;;;4907360;29;20689;-54
2024/01/18 08:10:59;;;;;;;27.87;11.70;;;-0.60;99.90;;;;;;4906482;29;20196;-50
2024/01/18 08:13:25;;;;;;;25.73;11.83;;;-0.60;99.90;;;;;;4905285;29;20332;-53
2024/01/18 08:15:50;;;;;;;32.47;12.17;;;-0.60;99.90;;;;;;4908027;29;20211;-50
2024/01/18 08:18:17;;;;;;;29.50;13.97;;;-0.60;99.90;;;;;;4896993;29;20268;-53
2024/01/18 08:20:43;;;;;;;26.83;10.87;;;-0.60;99.90;;;;;;4901532;29;20200;-51
2024/01/18 08:23:10;;;;;;;24.97;12.03;;;-0.50;99.90;;;;;;4911387;29;20719;-53
2024/01/18 08:25:36;;;;;;;29.27;12.17;;;-0.50;99.90;;;;;;4913792;29;20431;-50
2024/01/18 08:28:02;;;;;;;26.20;12.50;;;-0.50;99.90;;;;;;4906815;29;20212;-50
2024/01/18 08:30:27;;;;;;;32.83;12.97;;;-0.50;99.90;;;;;;4906670;29;20196;-53
2024/01/18 08:32:53;;;;;;;34.53;13.60;;;-0.50;99.90;;;;;;4900318;29;20279;-51
2024/01/18 08:35:18;;;;;;;27.93;12.40;;;-0.50;99.90;;;;;;4903199;29;20192;-52
2024/01/18 08:37:45;;;;;;;31.80;14.47;;;-0.50;99.90;;;;;;4900869;29;20430;-54
2024/01/18 08:40:12;;;;;;;28.30;12.77;;;-0.50;99.90;;;;;;4913263;29;20353;-53
2024/01/18 08:42:37;;;;;;;29.57;11.77;;;-0.50;99.90;;;;;;4902853;29;20472;-50
2024/01/18 08:45:04;;;;;;;30.43;12.73;;;-0.60;99.90;;;;;;4910083;29;20695;-51
2024/01/18 08:47:29;;;;;;;30.33;12.07;;;-0.60;99.90;;;;;;4906122;29;20279;-51
2024/01/18 08:49:55;;;;;;;34.43;14.83;;;-0.50;99.90;;;;;;4904925;29;20200;-49
2024/01/18 08:52:21;;;;;;;36.47;13.50;;;-0.50;99.90;;;;;;4908206;29;20653;-50
2024/01/18 08:54:47;;;;;;;31.87;14.80;;;-0.40;99.90;;;;;;4908192;29;20196;-53
2024/01/18 08:57:12;;;;;;;32.87;12.47;;;-0.40;99.90;;;;;;4897982;29;20590;-54
2024/01/18 08:59:38;;;;;;;26.33;11.73;;;-0.40;99.90;;;;;;4904627;29;20556;-52
2024/01/18 09:02:04;;;;;;;29.23;13.17;;;-0.40;99.90;;;;;;4913610;29;20303;-51
2024/01/18 09:04:29;;;;;;;40.93;16.77;;;-0.40;99.90;;;;;;4905700;29;20215;-49
2024/01/18 09:06:55;;;;;;;40.37;15.40;;;-0.30;99.90;;;;;;4898174;29;20225;-54
2024/01/18 09:09:21;;;;;;;30.07;11.77;;;-0.30;99.90;;;;;;4910312;29;20198;-50
2024/01/18 09:11:46;;;;;;;28.23;11.67;;;-0.30;99.90;;;;;;4900246;29;20196;-54
2024/01/18 09:14:12;;;;;;;28.37;11.67;;;-0.20;99.90;;;;;;4905635;29;20207;-51
2024/01/18 09:16:38;;;;;;;28.57;11.47;;;-0.20;99.90;;;;;;4900566;29;20227;-52
2024/01/18 09:19:03;;;;;;;32.23;11.07;;;-0.20;99.90;;;;;;4910166;29;20200;-52
2024/01/18 09:21:29;;;;;;;27.07;12.40;;;-0.20;99.90;;;;;;4905723;29;20219;-53
2024/01/18 09:23:55;;;;;;;28.20;11.63;;;-0.10;99.90;;;;;;4898650;29;20276;-50
2024/01/18 09:26:20;;;;;;;31.63;12.03;;;-0.10;99.90;;;;;;4911469;29;20215;-51
2024/01/18 09:28:46;;;;;;;27.20;11.90;;;-0.20;99.90;;;;;;4900352;29;20571;-60
2024/01/18 09:31:12;;;;;;;32.20;12.50;;;-0.20;99.90;;;;;;4910799;29;20195;-52
2024/01/18 09:33:38;;;;;;;28.93;11.07;;;-0.10;99.90;;;;;;4905445;29;20725;-54
2024/01/18 09:36:05;;;;;;;24.73;11.23;;;-0.10;99.90;;;;;;4903427;29;20204;-55
2024/01/18 09:38:31;;;;;;;30.67;13.80;;;-0.10;99.90;;;;;;4894142;29;20193;-51
2024/01/18 09:41:03;;;;;;;35.53;13.63;;;0.00;99.90;;;;;;4902131;29;20192;-51
2024/01/18 09:43:38;;;;;;;39.50;14.20;;;0.10;99.90;;;;;;4905148;29;20597;-53
2024/01/18 09:46:09;;;;;;;37.33;13.83;;;0.20;99.90;;;;;;4905260;29;20242;-53
2024/01/18 09:48:35;;;;;;;38.03;13.63;;;0.20;99.90;;;;;;4894226;29;20287;-53
2024/01/18 09:51:02;;;;;;;40.17;13.13;;;0.20;99.90;;;;;;4902159;29;20271;-52
2024/01/18 09:53:28;;;;;;;26.50;11.53;;;0.20;99.90;;;;;;4909934;29;20196;-51
2024/01/18 09:56:20;;;;;;;32.70;12.90;;;0.30;99.90;;;;;;4900132;29;20199;-53
2024/01/18 09:58:46;;;;;;;29.37;11.27;;;0.30;99.90;;;;;;4907367;29;20278;-52
2024/01/18 10:01:18;;;;;;;31.40;11.37;;;0.30;99.90;;;;;;4904340;29;20508;-52
2024/01/18 10:03:44;;;;;;;26.83;12.00;;;0.30;99.90;;;;;;4908083;29;20755;-52
2024/01/18 10:06:09;;;;;;;26.07;11.10;;;0.30;99.90;;;;;;4908025;29;20291;-55
2024/01/18 10:08:35;;;;;;;25.27;10.47;;;0.20;99.90;;;;;;4908866;29;20202;-54
2024/01/18 10:11:01;;;;;;;28.07;11.67;;;0.30;99.90;;;;;;4916842;29;20592;-50
2024/01/18 10:13:26;;;;;;;47.87;16.93;;;0.40;99.90;;;;;;4908949;29;20218;-50
2024/01/18 10:15:52;;;;;;;42.70;14.87;;;0.30;99.90;;;;;;4902030;29;20201;-50
2024/01/18 10:18:18;;;;;;;34.00;12.10;;;0.40;99.90;;;;;;4905812;29;20220;-51
2024/01/18 10:20:46;;;;;;;36.10;12.47;;;0.40;99.90;;;;;;4908818;29;20211;-54
2024/01/18 10:23:12;;;;;;;24.87;11.00;;;0.40;99.90;;;;;;4899634;29;20213;-51
2024/01/18 10:25:39;;;;;;;24.03;10.87;;;0.30;99.90;;;;;;4897148;29;20196;-51
2024/01/18 10:28:05;;;;;;;26.83;10.60;;;0.30;99.90;;;;;;4912885;29;20240;-53
2024/01/18 10:30:33;;;;;;;29.43;11.93;;;0.40;99.90;;;;;;4908947;29;20223;-50
2024/01/18 10:33:00;;;;;;;26.27;11.17;;;0.40;99.90;;;;;;4909517;29;20195;-51
2024/01/18 10:35:28;;;;;;;24.37;10.97;;;0.50;99.90;;;;;;4896772;29;20195;-54
2024/01/18 10:38:06;;;;;;;28.53;10.43;;;0.50;99.90;;;;;;4897240;29;20213;-49
2024/01/18 10:40:39;;;;;;;30.20;10.20;;;0.40;99.90;;;;;;4908829;29;20191;-51
2024/01/18 10:43:05;;;;;;;33.73;11.97;;;0.30;99.90;;;;;;4908400;29;20219;-55
2024/01/18 10:45:31;;;;;;;32.33;11.97;;;0.30;99.90;;;;;;4915713;29;20239;-49
2024/01/18 10:47:58;;;;;;;30.07;12.53;;;0.30;99.90;;;;;;4901852;29;20307;-51
2024/01/18 10:50:25;;;;;;;30.57;13.10;;;0.40;99.90;;;;;;4897094;29;20180;-50
2024/01/18 10:52:52;;;;;;;34.17;13.93;;;0.60;99.90;;;;;;4897094;29;20664;-51
2024/01/18 10:55:18;;;;;;;36.17;13.53;;;0.70;99.90;;;;;;4913548;29;20259;-52
2024/01/18 10:57:44;;;;;;;33.60;13.07;;;0.90;99.90;;;;;;4916048;29;20275;-51
2024/01/18 11:00:15;;;;;;;33.07;13.37;;;1.00;99.90;;;;;;4915316;29;20200;-50
2024/01/18 11:02:44;;;;;;;36.50;13.97;;;1.20;99.90;;;;;;4901691;29;20216;-54
2024/01/18 11:05:10;;;;;;;32.97;13.77;;;1.30;99.90;;;;;;4914778;29;20188;-49
2024/01/18 11:07:46;;;;;;;31.43;12.30;;;1.40;99.90;;;;;;4900647;29;20250;-51
2024/01/18 11:10:13;;;;;;;23.23;10.53;;;1.50;99.90;;;;;;4900121;29;20204;-50
2024/01/18 11:12:41;;;;;;;24.23;9.97;;;1.40;99.90;;;;;;4903473;29;20208;-51
2024/01/18 11:15:10;;;;;;;24.73;10.53;;;1.30;99.90;;;;;;4903299;29;20241;-53
2024/01/18 11:17:43;;;;;;;30.23;10.83;;;1.30;99.90;;;;;;4907973;29;20208;-51
2024/01/18 11:20:09;;;;;;;21.47;10.47;;;1.20;99.90;;;;;;4915320;29;20211;-50
2024/01/18 11:22:35;;;;;;;21.17;9.07;;;1.20;99.90;;;;;;4908492;29;20188;-54
2024/01/18 11:25:09;;;;;;;21.70;9.30;;;1.30;99.90;;;;;;4906611;29;20613;-51
2024/01/18 11:27:41;;;;;;;21.10;8.27;;;1.50;99.90;;;;;;4907875;29;20623;-50
2024/01/18 11:30:32;;;;;;;20.63;8.53;;;1.60;99.90;;;;;;4915447;29;20187;-50
2024/01/18 11:32:57;;;;;;;19.70;8.57;;;1.80;99.90;;;;;;4911506;29;20188;-50
2024/01/18 11:35:24;;;;;;;20.30;8.40;;;1.90;99.90;;;;;;4907067;29;20232;-49
2024/01/18 11:37:50;;;;;;;23.60;8.60;;;1.80;99.90;;;;;;4915193;29;20706;-49
2024/01/18 11:40:17;;;;;;;26.27;9.77;;;1.90;99.90;;;;;;4913186;29;20530;-52
2024/01/18 11:42:45;;;;;;;28.53;10.83;;;2.00;99.90;;;;;;4896642;29;20220;-51
2024/01/18 11:45:18;;;;;;;19.57;7.93;;;2.10;99.90;;;;;;4895891;29;20208;-49
2024/01/18 11:47:45;;;;;;;17.17;7.17;;;2.10;99.90;;;;;;4901271;29;20252;-51
2024/01/18 11:50:11;;;;;;;18.67;7.27;;;2.30;99.90;;;;;;4906715;29;20649;-49
2024/01/18 11:52:39;;;;;;;21.87;7.60;;;2.30;99.90;;;;;;4900366;29;20207;-50
2024/01/18 11:55:05;;;;;;;16.57;7.57;;;2.20;99.90;;;;;;4906679;29;20678;-52
2024/01/18 11:57:32;;;;;;;21.30;8.10;;;2.20;99.90;;;;;;4907513;29;20216;-52
2024/01/18 11:59:59;;;;;;;23.73;8.07;;;2.20;99.90;;;;;;4915193;29;20188;-51
2024/01/18 12:02:28;;;;;;;21.17;8.03;;;2.20;99.90;;;;;;4905691;29;20552;-51
2024/01/18 12:04:55;;;;;;;21.40;8.83;;;2.20;99.90;;;;;;4900407;29;20244;-52
2024/01/18 12:07:23;;;;;;;18.60;7.50;;;2.50;99.90;;;;;;4905027;29;20254;-52
2024/01/18 12:09:50;;;;;;;22.03;7.63;;;2.60;99.90;;;;;;4909353;29;20649;-52
2024/01/18 12:12:18;;;;;;;22.87;7.73;;;2.80;99.90;;;;;;4905042;29;20224;-54
2024/01/18 12:14:45;;;;;;;16.70;7.40;;;3.20;99.90;;;;;;4914742;29;20188;-51
2024/01/18 12:17:12;;;;;;;19.27;7.23;;;3.70;99.90;;;;;;4913995;29;20232;-51
2024/01/18 12:19:42;;;;;;;23.07;7.03;;;4.00;99.90;;;;;;4914873;29;20233;-51
2024/01/18 12:22:10;;;;;;;22.00;7.17;;;4.20;99.90;;;;;;4905370;29;20184;-52
2024/01/18 12:24:37;;;;;;;15.70;6.70;;;4.10;99.90;;;;;;4914424;29;20675;-49
2024/01/18 12:27:06;;;;;;;16.07;6.53;;;4.10;99.90;;;;;;4906203;29;20208;-50
2024/01/18 12:29:33;;;;;;;20.20;6.90;;;4.00;99.90;;;;;;4907024;29;20188;-50